sensor_id;sensor_type;location;lat;lon;timestamp;P1;durP1;ratioP1;P2;durP2;ratioP2
62149;SDS011;48134;53.586;10.610;2024-03-23T00:55:46;21.77;;;3.92;;
62149;SDS011;48134;53.586;10.610;2024-03-23T00:58:14;27.05;;;3.72;;
62149;SDS011;48134;53.586;10.610;2024-03-23T01:00:41;22.77;;;3.50;;
62149;SDS011;48134;53.586;10.610;2024-03-23T01:03:08;22.95;;;3.38;;
62149;SDS011;48134;53.586;10.610;2024-03-23T01:05:35;28.83;;;4.00;;
62149;SDS011;48134;53.586;10.610;2024-03-23T01:08:03;23.02;;;3.90;;
62149;SDS011;48134;53.586;10.610;2024-03-23T01:10:31;27.77;;;3.53;;
62149;SDS011;48134;53.586;10.610;2024-03-23T01:12:59;23.67;;;3.72;;
62149;SDS011;48134;53.586;10.610;2024-03-23T01:15:26;25.25;;;3.50;;
62149;SDS011;48134;53.586;10.610;2024-03-23T01:17:53;22.02;;;4.03;;
62149;SDS011;48134;53.586;10.610;2024-03-23T01:20:21;23.88;;;3.35;;
62149;SDS011;48134;53.586;10.610;2024-03-23T01:22:48;29.97;;;3.93;;
62149;SDS011;48134;53.586;10.610;2024-03-23T01:25:16;31.43;;;4.13;;
62149;SDS011;48134;53.586;10.610;2024-03-23T01:27:44;24.17;;;3.78;;
62149;SDS011;48134;53.586;10.610;2024-03-23T01:30:11;28.70;;;3.80;;
62149;SDS011;48134;53.586;10.610;2024-03-23T01:32:40;25.48;;;3.38;;
62149;SDS011;48134;53.586;10.610;2024-03-23T01:35:08;23.50;;;3.50;;
62149;SDS011;48134;53.586;10.610;2024-03-23T01:37:35;23.67;;;3.80;;
62149;SDS011;48134;53.586;10.610;2024-03-23T01:40:03;27.50;;;3.97;;
62149;SDS011;48134;53.586;10.610;2024-03-23T01:42:30;23.37;;;3.40;;
62149;SDS011;48134;53.586;10.610;2024-03-23T01:44:59;24.15;;;3.25;;
62149;SDS011;48134;53.586;10.610;2024-03-23T01:47:26;20.25;;;3.05;;
62149;SDS011;48134;53.586;10.610;2024-03-23T01:49:54;25.58;;;3.50;;
62149;SDS011;48134;53.586;10.610;2024-03-23T01:52:21;22.90;;;3.58;;
62149;SDS011;48134;53.586;10.610;2024-03-23T01:54:49;25.73;;;3.75;;
62149;SDS011;48134;53.586;10.610;2024-03-23T01:57:16;26.27;;;3.83;;
62149;SDS011;48134;53.586;10.610;2024-03-23T01:59:44;27.75;;;3.60;;
62149;SDS011;48134;53.586;10.610;2024-03-23T02:02:13;23.90;;;3.67;;
62149;SDS011;48134;53.586;10.610;2024-03-23T02:04:43;20.98;;;3.33;;
62149;SDS011;48134;53.586;10.610;2024-03-23T02:07:10;24.55;;;3.72;;
62149;SDS011;48134;53.586;10.610;2024-03-23T02:09:38;25.08;;;3.97;;
62149;SDS011;48134;53.586;10.610;2024-03-23T02:12:05;23.77;;;3.80;;
62149;SDS011;48134;53.586;10.610;2024-03-23T02:14:34;22.23;;;3.47;;
62149;SDS011;48134;53.586;10.610;2024-03-23T02:17:01;22.73;;;3.60;;
62149;SDS011;48134;53.586;10.610;2024-03-23T02:19:30;23.02;;;3.80;;
62149;SDS011;48134;53.586;10.610;2024-03-23T02:21:57;27.13;;;3.92;;
62149;SDS011;48134;53.586;10.610;2024-03-23T02:24:28;29.60;;;4.32;;
62149;SDS011;48134;53.586;10.610;2024-03-23T02:26:56;28.00;;;4.40;;
62149;SDS011;48134;53.586;10.610;2024-03-23T02:29:24;27.40;;;3.92;;
62149;SDS011;48134;53.586;10.610;2024-03-23T02:31:51;29.80;;;3.92;;
62149;SDS011;48134;53.586;10.610;2024-03-23T02:34:19;24.75;;;3.83;;
62149;SDS011;48134;53.586;10.610;2024-03-23T02:36:46;27.60;;;3.83;;
62149;SDS011;48134;53.586;10.610;2024-03-23T02:39:14;28.77;;;3.83;;
62149;SDS011;48134;53.586;10.610;2024-03-23T02:41:42;28.70;;;4.10;;
62149;SDS011;48134;53.586;10.610;2024-03-23T02:44:11;25.90;;;3.87;;
62149;SDS011;48134;53.586;10.610;2024-03-23T02:46:38;26.95;;;3.95;;
62149;SDS011;48134;53.586;10.610;2024-03-23T02:49:06;20.77;;;3.83;;
62149;SDS011;48134;53.586;10.610;2024-03-23T02:51:34;30.55;;;4.43;;
62149;SDS011;48134;53.586;10.610;2024-03-23T02:54:02;25.10;;;3.95;;
62149;SDS011;48134;53.586;10.610;2024-03-23T02:56:32;32.25;;;4.10;;
62149;SDS011;48134;53.586;10.610;2024-03-23T02:59:00;24.58;;;3.88;;
62149;SDS011;48134;53.586;10.610;2024-03-23T03:01:28;23.93;;;3.63;;
62149;SDS011;48134;53.586;10.610;2024-03-23T03:03:56;25.67;;;3.92;;
62149;SDS011;48134;53.586;10.610;2024-03-23T03:06:24;21.98;;;3.90;;
62149;SDS011;48134;53.586;10.610;2024-03-23T03:08:51;25.83;;;3.80;;
62149;SDS011;48134;53.586;10.610;2024-03-23T03:11:20;29.98;;;4.30;;
62149;SDS011;48134;53.586;10.610;2024-03-23T03:13:47;25.20;;;4.30;;
62149;SDS011;48134;53.586;10.610;2024-03-23T03:16:19;26.42;;;3.90;;
62149;SDS011;48134;53.586;10.610;2024-03-23T03:18:46;22.90;;;3.63;;
62149;SDS011;48134;53.586;10.610;2024-03-23T03:21:14;27.40;;;4.22;;
62149;SDS011;48134;53.586;10.610;2024-03-23T03:23:42;22.48;;;3.63;;
62149;SDS011;48134;53.586;10.610;2024-03-23T03:26:12;23.57;;;3.47;;
62149;SDS011;48134;53.586;10.610;2024-03-23T03:28:40;34.30;;;4.90;;
62149;SDS011;48134;53.586;10.610;2024-03-23T03:31:08;22.25;;;4.03;;
62149;SDS011;48134;53.586;10.610;2024-03-23T03:33:36;28.40;;;4.45;;
62149;SDS011;48134;53.586;10.610;2024-03-23T03:36:04;22.08;;;3.75;;
62149;SDS011;48134;53.586;10.610;2024-03-23T03:38:31;24.47;;;4.47;;
62149;SDS011;48134;53.586;10.610;2024-03-23T03:41:01;19.50;;;3.60;;
62149;SDS011;48134;53.586;10.610;2024-03-23T03:43:28;30.10;;;4.25;;
62149;SDS011;48134;53.586;10.610;2024-03-23T03:45:57;26.65;;;4.32;;
62149;SDS011;48134;53.586;10.610;2024-03-23T03:48:25;21.73;;;3.90;;
62149;SDS011;48134;53.586;10.610;2024-03-23T03:50:55;29.70;;;4.07;;
62149;SDS011;48134;53.586;10.610;2024-03-23T03:53:21;21.45;;;3.95;;
62149;SDS011;48134;53.586;10.610;2024-03-23T03:55:50;26.88;;;4.70;;
62149;SDS011;48134;53.586;10.610;2024-03-23T03:58:17;28.90;;;4.38;;
62149;SDS011;48134;53.586;10.610;2024-03-23T04:00:44;22.87;;;4.60;;
62149;SDS011;48134;53.586;10.610;2024-03-23T04:03:11;25.52;;;4.30;;
62149;SDS011;48134;53.586;10.610;2024-03-23T04:05:40;24.88;;;3.92;;
62149;SDS011;48134;53.586;10.610;2024-03-23T04:08:08;25.27;;;3.90;;
62149;SDS011;48134;53.586;10.610;2024-03-23T04:10:36;24.92;;;4.00;;
62149;SDS011;48134;53.586;10.610;2024-03-23T04:13:03;20.15;;;3.95;;
62149;SDS011;48134;53.586;10.610;2024-03-23T04:15:32;28.13;;;4.25;;
62149;SDS011;48134;53.586;10.610;2024-03-23T04:18:01;31.20;;;4.97;;
62149;SDS011;48134;53.586;10.610;2024-03-23T04:20:29;27.87;;;4.40;;
62149;SDS011;48134;53.586;10.610;2024-03-23T04:22:59;33.40;;;5.33;;
62149;SDS011;48134;53.586;10.610;2024-03-23T04:25:28;20.10;;;4.20;;
62149;SDS011;48134;53.586;10.610;2024-03-23T04:27:55;29.30;;;4.65;;
62149;SDS011;48134;53.586;10.610;2024-03-23T04:30:23;23.70;;;4.33;;
62149;SDS011;48134;53.586;10.610;2024-03-23T04:32:51;21.53;;;4.07;;
62149;SDS011;48134;53.586;10.610;2024-03-23T04:35:19;24.02;;;4.50;;
62149;SDS011;48134;53.586;10.610;2024-03-23T04:37:48;27.88;;;4.65;;
62149;SDS011;48134;53.586;10.610;2024-03-23T04:40:17;34.00;;;5.05;;
62149;SDS011;48134;53.586;10.610;2024-03-23T04:42:47;20.70;;;4.55;;
62149;SDS011;48134;53.586;10.610;2024-03-23T04:45:15;26.83;;;4.90;;
62149;SDS011;48134;53.586;10.610;2024-03-23T04:47:43;28.45;;;5.38;;
62149;SDS011;48134;53.586;10.610;2024-03-23T04:50:10;28.02;;;4.97;;
62149;SDS011;48134;53.586;10.610;2024-03-23T04:52:41;28.15;;;5.60;;
62149;SDS011;48134;53.586;10.610;2024-03-23T04:55:09;23.07;;;4.80;;
62149;SDS011;48134;53.586;10.610;2024-03-23T04:57:38;29.42;;;5.45;;
62149;SDS011;48134;53.586;10.610;2024-03-23T05:00:10;25.02;;;4.78;;
62149;SDS011;48134;53.586;10.610;2024-03-23T05:02:44;24.77;;;5.07;;
62149;SDS011;48134;53.586;10.610;2024-03-23T05:05:12;33.00;;;5.45;;
62149;SDS011;48134;53.586;10.610;2024-03-23T05:07:39;31.15;;;5.32;;
62149;SDS011;48134;53.586;10.610;2024-03-23T05:10:09;27.30;;;5.15;;
62149;SDS011;48134;53.586;10.610;2024-03-23T05:12:37;32.23;;;5.13;;
62149;SDS011;48134;53.586;10.610;2024-03-23T05:15:04;25.73;;;4.97;;
62149;SDS011;48134;53.586;10.610;2024-03-23T05:17:33;27.05;;;5.18;;
62149;SDS011;48134;53.586;10.610;2024-03-23T05:20:02;25.63;;;5.20;;
62149;SDS011;48134;53.586;10.610;2024-03-23T05:22:29;30.23;;;5.85;;
62149;SDS011;48134;53.586;10.610;2024-03-23T05:24:57;28.27;;;5.10;;
62149;SDS011;48134;53.586;10.610;2024-03-23T05:27:24;28.80;;;5.05;;
62149;SDS011;48134;53.586;10.610;2024-03-23T05:29:52;26.60;;;5.25;;
62149;SDS011;48134;53.586;10.610;2024-03-23T05:32:18;30.52;;;5.50;;
62149;SDS011;48134;53.586;10.610;2024-03-23T05:34:48;31.42;;;4.85;;
62149;SDS011;48134;53.586;10.610;2024-03-23T05:37:16;22.67;;;4.55;;
62149;SDS011;48134;53.586;10.610;2024-03-23T05:39:44;21.00;;;4.40;;
62149;SDS011;48134;53.586;10.610;2024-03-23T05:42:10;21.43;;;4.50;;
62149;SDS011;48134;53.586;10.610;2024-03-23T05:44:38;26.20;;;4.45;;
62149;SDS011;48134;53.586;10.610;2024-03-23T05:47:05;28.65;;;4.45;;
62149;SDS011;48134;53.586;10.610;2024-03-23T05:49:33;27.10;;;4.63;;
62149;SDS011;48134;53.586;10.610;2024-03-23T05:52:01;25.00;;;4.30;;
62149;SDS011;48134;53.586;10.610;2024-03-23T05:54:29;25.13;;;5.03;;
62149;SDS011;48134;53.586;10.610;2024-03-23T05:56:56;25.00;;;4.63;;
62149;SDS011;48134;53.586;10.610;2024-03-23T05:59:23;28.70;;;4.65;;
62149;SDS011;48134;53.586;10.610;2024-03-23T06:01:50;20.88;;;4.32;;
62149;SDS011;48134;53.586;10.610;2024-03-23T06:04:18;29.15;;;4.50;;
62149;SDS011;48134;53.586;10.610;2024-03-23T06:06:45;21.00;;;4.22;;
62149;SDS011;48134;53.586;10.610;2024-03-23T06:09:14;27.08;;;3.90;;
62149;SDS011;48134;53.586;10.610;2024-03-23T06:11:40;29.90;;;5.10;;
62149;SDS011;48134;53.586;10.610;2024-03-23T06:14:08;30.10;;;4.57;;
62149;SDS011;48134;53.586;10.610;2024-03-23T06:16:35;23.63;;;4.60;;
62149;SDS011;48134;53.586;10.610;2024-03-23T06:19:03;25.80;;;3.88;;
62149;SDS011;48134;53.586;10.610;2024-03-23T06:21:32;28.42;;;4.50;;
62149;SDS011;48134;53.586;10.610;2024-03-23T06:24:00;20.85;;;3.83;;
62149;SDS011;48134;53.586;10.610;2024-03-23T06:26:28;23.00;;;3.70;;
62149;SDS011;48134;53.586;10.610;2024-03-23T06:28:56;25.13;;;4.03;;
62149;SDS011;48134;53.586;10.610;2024-03-23T06:31:23;18.53;;;3.53;;
62149;SDS011;48134;53.586;10.610;2024-03-23T06:33:51;21.13;;;3.90;;
62149;SDS011;48134;53.586;10.610;2024-03-23T06:36:17;22.88;;;3.92;;
62149;SDS011;48134;53.586;10.610;2024-03-23T06:38:46;22.02;;;3.85;;
62149;SDS011;48134;53.586;10.610;2024-03-23T06:41:12;23.45;;;4.00;;
62149;SDS011;48134;53.586;10.610;2024-03-23T06:43:45;24.85;;;3.72;;
62149;SDS011;48134;53.586;10.610;2024-03-23T06:46:11;27.20;;;4.00;;
62149;SDS011;48134;53.586;10.610;2024-03-23T06:48:39;19.42;;;3.53;;
62149;SDS011;48134;53.586;10.610;2024-03-23T06:51:06;21.00;;;3.42;;
62149;SDS011;48134;53.586;10.610;2024-03-23T06:53:35;26.10;;;3.70;;
62149;SDS011;48134;53.586;10.610;2024-03-23T06:56:01;21.25;;;3.65;;
62149;SDS011;48134;53.586;10.610;2024-03-23T06:58:33;22.67;;;3.80;;
62149;SDS011;48134;53.586;10.610;2024-03-23T07:01:02;22.85;;;3.38;;
62149;SDS011;48134;53.586;10.610;2024-03-23T07:03:31;25.50;;;4.32;;
62149;SDS011;48134;53.586;10.610;2024-03-23T07:05:58;27.50;;;3.75;;
62149;SDS011;48134;53.586;10.610;2024-03-23T07:08:29;21.83;;;3.97;;
62149;SDS011;48134;53.586;10.610;2024-03-23T07:10:58;21.15;;;3.85;;
62149;SDS011;48134;53.586;10.610;2024-03-23T07:13:25;21.57;;;3.03;;
62149;SDS011;48134;53.586;10.610;2024-03-23T07:15:52;25.42;;;3.65;;
62149;SDS011;48134;53.586;10.610;2024-03-23T07:18:23;23.30;;;3.60;;
62149;SDS011;48134;53.586;10.610;2024-03-23T07:20:53;29.02;;;4.13;;
62149;SDS011;48134;53.586;10.610;2024-03-23T07:23:23;24.13;;;4.03;;
62149;SDS011;48134;53.586;10.610;2024-03-23T07:25:56;24.20;;;3.70;;
62149;SDS011;48134;53.586;10.610;2024-03-23T07:28:24;26.95;;;5.10;;
62149;SDS011;48134;53.586;10.610;2024-03-23T07:33:36;21.05;;;4.03;;
62149;SDS011;48134;53.586;10.610;2024-03-23T07:36:07;22.97;;;3.73;;
62149;SDS011;48134;53.586;10.610;2024-03-23T07:38:36;22.17;;;3.47;;
62149;SDS011;48134;53.586;10.610;2024-03-23T07:41:03;20.47;;;3.40;;
62149;SDS011;48134;53.586;10.610;2024-03-23T07:43:35;23.00;;;4.20;;
62149;SDS011;48134;53.586;10.610;2024-03-23T07:46:02;22.97;;;4.03;;
62149;SDS011;48134;53.586;10.610;2024-03-23T07:48:31;22.85;;;3.70;;
62149;SDS011;48134;53.586;10.610;2024-03-23T07:51:17;23.80;;;4.40;;
62149;SDS011;48134;53.586;10.610;2024-03-23T07:53:56;22.60;;;3.83;;
62149;SDS011;48134;53.586;10.610;2024-03-23T07:56:25;21.27;;;3.57;;
62149;SDS011;48134;53.586;10.610;2024-03-23T07:59:10;23.30;;;4.40;;
62149;SDS011;48134;53.586;10.610;2024-03-23T08:01:38;19.63;;;3.83;;
62149;SDS011;48134;53.586;10.610;2024-03-23T08:04:05;20.38;;;3.58;;
62149;SDS011;48134;53.586;10.610;2024-03-23T08:06:36;16.45;;;3.65;;
62149;SDS011;48134;53.586;10.610;2024-03-23T08:09:05;24.40;;;4.22;;
62149;SDS011;48134;53.586;10.610;2024-03-23T08:11:32;20.23;;;3.78;;
62149;SDS011;48134;53.586;10.610;2024-03-23T08:14:00;19.17;;;3.80;;
62149;SDS011;48134;53.586;10.610;2024-03-23T08:16:28;18.50;;;3.58;;
62149;SDS011;48134;53.586;10.610;2024-03-23T08:19:42;27.50;;;4.88;;
62149;SDS011;48134;53.586;10.610;2024-03-23T08:22:39;16.60;;;3.15;;
62149;SDS011;48134;53.586;10.610;2024-03-23T08:25:36;26.20;;;4.60;;
62149;SDS011;48134;53.586;10.610;2024-03-23T08:28:19;17.05;;;3.63;;
62149;SDS011;48134;53.586;10.610;2024-03-23T08:30:49;18.27;;;3.70;;
62149;SDS011;48134;53.586;10.610;2024-03-23T08:33:16;18.95;;;4.03;;
62149;SDS011;48134;53.586;10.610;2024-03-23T08:35:54;20.70;;;3.95;;
62149;SDS011;48134;53.586;10.610;2024-03-23T08:38:23;20.65;;;3.88;;
62149;SDS011;48134;53.586;10.610;2024-03-23T08:40:56;21.53;;;4.97;;
62149;SDS011;48134;53.586;10.610;2024-03-23T08:43:23;25.10;;;4.40;;
62149;SDS011;48134;53.586;10.610;2024-03-23T08:45:54;19.88;;;3.88;;
62149;SDS011;48134;53.586;10.610;2024-03-23T08:48:21;18.70;;;3.50;;
62149;SDS011;48134;53.586;10.610;2024-03-23T08:50:57;21.27;;;4.60;;
62149;SDS011;48134;53.586;10.610;2024-03-23T08:53:28;18.90;;;4.10;;
62149;SDS011;48134;53.586;10.610;2024-03-23T08:55:56;22.52;;;3.47;;
62149;SDS011;48134;53.586;10.610;2024-03-23T08:58:24;21.50;;;3.88;;
62149;SDS011;48134;53.586;10.610;2024-03-23T09:00:53;16.77;;;3.63;;
62149;SDS011;48134;53.586;10.610;2024-03-23T09:03:22;15.30;;;3.30;;
62149;SDS011;48134;53.586;10.610;2024-03-23T09:05:50;18.33;;;3.13;;
62149;SDS011;48134;53.586;10.610;2024-03-23T09:08:19;17.27;;;3.05;;
62149;SDS011;48134;53.586;10.610;2024-03-23T09:10:48;18.08;;;2.97;;
62149;SDS011;48134;53.586;10.610;2024-03-23T09:13:15;18.33;;;3.40;;
62149;SDS011;48134;53.586;10.610;2024-03-23T09:15:45;13.75;;;2.63;;
62149;SDS011;48134;53.586;10.610;2024-03-23T09:18:13;18.27;;;3.05;;
62149;SDS011;48134;53.586;10.610;2024-03-23T09:20:41;18.13;;;2.77;;
62149;SDS011;48134;53.586;10.610;2024-03-23T09:23:08;19.83;;;3.27;;
62149;SDS011;48134;53.586;10.610;2024-03-23T09:25:36;15.05;;;2.88;;
62149;SDS011;48134;53.586;10.610;2024-03-23T09:28:15;14.30;;;2.53;;
62149;SDS011;48134;53.586;10.610;2024-03-23T09:30:43;13.38;;;2.70;;
62149;SDS011;48134;53.586;10.610;2024-03-23T09:33:11;9.65;;;2.20;;
62149;SDS011;48134;53.586;10.610;2024-03-23T09:35:40;15.63;;;2.67;;
62149;SDS011;48134;53.586;10.610;2024-03-23T09:38:08;13.65;;;2.92;;
62149;SDS011;48134;53.586;10.610;2024-03-23T09:40:39;17.48;;;3.13;;
62149;SDS011;48134;53.586;10.610;2024-03-23T09:43:07;14.57;;;3.00;;
62149;SDS011;48134;53.586;10.610;2024-03-23T09:45:38;21.20;;;3.00;;
62149;SDS011;48134;53.586;10.610;2024-03-23T09:48:06;17.17;;;2.83;;
62149;SDS011;48134;53.586;10.610;2024-03-23T09:50:36;17.57;;;3.30;;
62149;SDS011;48134;53.586;10.610;2024-03-23T09:53:03;14.57;;;2.90;;
62149;SDS011;48134;53.586;10.610;2024-03-23T09:55:31;14.68;;;2.67;;
62149;SDS011;48134;53.586;10.610;2024-03-23T09:57:58;16.55;;;2.80;;
62149;SDS011;48134;53.586;10.610;2024-03-23T10:00:26;14.40;;;2.63;;
62149;SDS011;48134;53.586;10.610;2024-03-23T10:02:56;11.68;;;2.67;;
62149;SDS011;48134;53.586;10.610;2024-03-23T10:05:27;14.25;;;3.10;;
62149;SDS011;48134;53.586;10.610;2024-03-23T10:07:55;12.32;;;2.95;;
62149;SDS011;48134;53.586;10.610;2024-03-23T10:10:24;11.88;;;2.75;;
62149;SDS011;48134;53.586;10.610;2024-03-23T10:12:52;13.95;;;3.13;;
62149;SDS011;48134;53.586;10.610;2024-03-23T10:15:20;14.50;;;3.00;;
62149;SDS011;48134;53.586;10.610;2024-03-23T10:17:48;12.90;;;2.95;;
62149;SDS011;48134;53.586;10.610;2024-03-23T10:20:20;11.05;;;2.83;;
62149;SDS011;48134;53.586;10.610;2024-03-23T10:22:49;12.68;;;2.75;;
62149;SDS011;48134;53.586;10.610;2024-03-23T10:25:17;13.00;;;2.58;;
62149;SDS011;48134;53.586;10.610;2024-03-23T10:27:55;8.57;;;2.22;;
62149;SDS011;48134;53.586;10.610;2024-03-23T10:30:26;12.77;;;2.40;;
62149;SDS011;48134;53.586;10.610;2024-03-23T10:33:01;13.30;;;2.38;;
62149;SDS011;48134;53.586;10.610;2024-03-23T10:35:36;13.13;;;2.60;;
62149;SDS011;48134;53.586;10.610;2024-03-23T10:38:05;12.65;;;2.50;;
62149;SDS011;48134;53.586;10.610;2024-03-23T10:40:34;12.82;;;2.30;;
62149;SDS011;48134;53.586;10.610;2024-03-23T10:43:02;15.80;;;2.75;;
62149;SDS011;48134;53.586;10.610;2024-03-23T10:45:31;9.50;;;2.00;;
62149;SDS011;48134;53.586;10.610;2024-03-23T10:47:58;10.48;;;2.33;;
62149;SDS011;48134;53.586;10.610;2024-03-23T10:50:27;13.05;;;2.17;;
62149;SDS011;48134;53.586;10.610;2024-03-23T10:52:55;10.88;;;2.10;;
62149;SDS011;48134;53.586;10.610;2024-03-23T10:55:25;13.57;;;2.33;;
62149;SDS011;48134;53.586;10.610;2024-03-23T10:57:54;10.10;;;1.90;;
62149;SDS011;48134;53.586;10.610;2024-03-23T11:00:24;9.88;;;2.28;;
62149;SDS011;48134;53.586;10.610;2024-03-23T11:02:51;9.30;;;2.15;;
62149;SDS011;48134;53.586;10.610;2024-03-23T11:05:27;22.55;;;8.00;;
62149;SDS011;48134;53.586;10.610;2024-03-23T11:07:56;11.40;;;2.30;;
62149;SDS011;48134;53.586;10.610;2024-03-23T11:10:25;11.60;;;2.90;;
62149;SDS011;48134;53.586;10.610;2024-03-23T11:12:53;17.20;;;5.45;;
62149;SDS011;48134;53.586;10.610;2024-03-23T11:15:20;14.30;;;3.85;;
62149;SDS011;48134;53.586;10.610;2024-03-23T11:18:03;14.75;;;3.28;;
62149;SDS011;48134;53.586;10.610;2024-03-23T11:20:32;9.23;;;2.20;;
62149;SDS011;48134;53.586;10.610;2024-03-23T11:23:00;9.95;;;2.60;;
62149;SDS011;48134;53.586;10.610;2024-03-23T11:25:28;17.45;;;6.57;;
62149;SDS011;48134;53.586;10.610;2024-03-23T11:27:56;16.40;;;4.80;;
62149;SDS011;48134;53.586;10.610;2024-03-23T11:30:24;22.60;;;8.73;;
62149;SDS011;48134;53.586;10.610;2024-03-23T11:32:53;11.77;;;3.63;;
62149;SDS011;48134;53.586;10.610;2024-03-23T11:35:25;4.55;;;1.50;;
62149;SDS011;48134;53.586;10.610;2024-03-23T11:38:03;4.40;;;0.90;;
62149;SDS011;48134;53.586;10.610;2024-03-23T11:40:32;4.05;;;1.05;;
62149;SDS011;48134;53.586;10.610;2024-03-23T11:43:00;4.80;;;1.23;;
62149;SDS011;48134;53.586;10.610;2024-03-23T11:45:29;5.00;;;1.10;;
62149;SDS011;48134;53.586;10.610;2024-03-23T11:48:02;3.92;;;1.45;;
62149;SDS011;48134;53.586;10.610;2024-03-23T11:50:33;6.37;;;1.43;;
62149;SDS011;48134;53.586;10.610;2024-03-23T11:53:13;5.95;;;1.40;;
62149;SDS011;48134;53.586;10.610;2024-03-23T11:55:43;3.30;;;1.00;;
62149;SDS011;48134;53.586;10.610;2024-03-23T11:58:11;5.72;;;1.40;;
62149;SDS011;48134;53.586;10.610;2024-03-23T12:00:39;6.60;;;1.30;;
62149;SDS011;48134;53.586;10.610;2024-03-23T12:03:06;5.13;;;1.80;;
62149;SDS011;48134;53.586;10.610;2024-03-23T12:05:34;7.22;;;1.77;;
62149;SDS011;48134;53.586;10.610;2024-03-23T12:08:21;5.60;;;2.07;;
62149;SDS011;48134;53.586;10.610;2024-03-23T12:10:51;8.48;;;2.05;;
62149;SDS011;48134;53.586;10.610;2024-03-23T12:13:19;7.55;;;2.35;;
62149;SDS011;48134;53.586;10.610;2024-03-23T12:15:48;7.87;;;2.00;;
62149;SDS011;48134;53.586;10.610;2024-03-23T12:18:16;8.25;;;2.13;;
62149;SDS011;48134;53.586;10.610;2024-03-23T12:20:44;7.65;;;1.70;;
62149;SDS011;48134;53.586;10.610;2024-03-23T12:23:11;8.27;;;1.83;;
62149;SDS011;48134;53.586;10.610;2024-03-23T12:25:44;7.80;;;1.70;;
62149;SDS011;48134;53.586;10.610;2024-03-23T12:28:11;10.10;;;1.95;;
62149;SDS011;48134;53.586;10.610;2024-03-23T12:30:39;9.20;;;2.05;;
62149;SDS011;48134;53.586;10.610;2024-03-23T12:33:06;8.10;;;2.00;;
62149;SDS011;48134;53.586;10.610;2024-03-23T12:35:36;7.35;;;1.92;;
62149;SDS011;48134;53.586;10.610;2024-03-23T12:38:03;8.13;;;1.92;;
62149;SDS011;48134;53.586;10.610;2024-03-23T12:40:31;11.73;;;2.10;;
62149;SDS011;48134;53.586;10.610;2024-03-23T12:42:59;8.27;;;1.95;;
62149;SDS011;48134;53.586;10.610;2024-03-23T12:45:27;8.50;;;1.65;;
62149;SDS011;48134;53.586;10.610;2024-03-23T12:47:53;3.75;;;1.05;;
62149;SDS011;48134;53.586;10.610;2024-03-23T12:50:21;4.53;;;0.90;;
62149;SDS011;48134;53.586;10.610;2024-03-23T12:52:48;5.45;;;1.30;;
62149;SDS011;48134;53.586;10.610;2024-03-23T12:55:16;3.20;;;1.00;;
62149;SDS011;48134;53.586;10.610;2024-03-23T12:57:43;4.32;;;1.10;;
62149;SDS011;48134;53.586;10.610;2024-03-23T13:00:13;7.78;;;1.00;;
62149;SDS011;48134;53.586;10.610;2024-03-23T13:02:42;5.03;;;1.15;;
62149;SDS011;48134;53.586;10.610;2024-03-23T13:05:09;2.13;;;1.08;;
62149;SDS011;48134;53.586;10.610;2024-03-23T13:07:36;5.55;;;0.90;;
62149;SDS011;48134;53.586;10.610;2024-03-23T13:10:05;2.03;;;1.00;;
62149;SDS011;48134;53.586;10.610;2024-03-23T13:12:32;2.80;;;0.93;;
62149;SDS011;48134;53.586;10.610;2024-03-23T13:15:00;3.97;;;1.13;;
62149;SDS011;48134;53.586;10.610;2024-03-23T13:17:36;3.10;;;0.90;;
62149;SDS011;48134;53.586;10.610;2024-03-23T13:20:06;4.77;;;1.03;;
62149;SDS011;48134;53.586;10.610;2024-03-23T13:22:39;2.70;;;0.90;;
62149;SDS011;48134;53.586;10.610;2024-03-23T13:25:08;5.60;;;1.00;;
62149;SDS011;48134;53.586;10.610;2024-03-23T13:27:34;6.20;;;1.00;;
62149;SDS011;48134;53.586;10.610;2024-03-23T13:30:02;2.53;;;0.88;;
62149;SDS011;48134;53.586;10.610;2024-03-23T13:32:31;3.58;;;1.00;;
62149;SDS011;48134;53.586;10.610;2024-03-23T13:34:59;5.72;;;1.00;;
62149;SDS011;48134;53.586;10.610;2024-03-23T13:37:26;4.22;;;1.20;;
62149;SDS011;48134;53.586;10.610;2024-03-23T13:39:54;2.67;;;0.77;;
62149;SDS011;48134;53.586;10.610;2024-03-23T13:42:20;2.53;;;0.67;;
62149;SDS011;48134;53.586;10.610;2024-03-23T13:44:51;2.35;;;0.90;;
62149;SDS011;48134;53.586;10.610;2024-03-23T13:47:18;2.00;;;0.75;;
62149;SDS011;48134;53.586;10.610;2024-03-23T13:49:47;2.90;;;0.80;;
62149;SDS011;48134;53.586;10.610;2024-03-23T13:52:15;3.17;;;0.83;;
62149;SDS011;48134;53.586;10.610;2024-03-23T13:54:44;4.65;;;0.90;;
62149;SDS011;48134;53.586;10.610;2024-03-23T13:57:12;4.00;;;0.85;;
62149;SDS011;48134;53.586;10.610;2024-03-23T13:59:40;4.78;;;1.05;;
62149;SDS011;48134;53.586;10.610;2024-03-23T14:02:06;5.25;;;1.30;;
62149;SDS011;48134;53.586;10.610;2024-03-23T14:04:34;7.18;;;1.30;;
62149;SDS011;48134;53.586;10.610;2024-03-23T14:07:02;6.85;;;1.40;;
62149;SDS011;48134;53.586;10.610;2024-03-23T14:09:30;5.07;;;1.27;;
62149;SDS011;48134;53.586;10.610;2024-03-23T14:11:58;5.63;;;1.30;;
62149;SDS011;48134;53.586;10.610;2024-03-23T14:14:27;4.60;;;1.37;;
62149;SDS011;48134;53.586;10.610;2024-03-23T14:16:54;5.83;;;1.37;;
62149;SDS011;48134;53.586;10.610;2024-03-23T14:19:21;5.05;;;1.25;;
62149;SDS011;48134;53.586;10.610;2024-03-23T14:21:48;5.80;;;1.30;;
62149;SDS011;48134;53.586;10.610;2024-03-23T14:24:18;7.07;;;1.63;;
62149;SDS011;48134;53.586;10.610;2024-03-23T14:26:45;7.07;;;1.30;;
62149;SDS011;48134;53.586;10.610;2024-03-23T14:29:13;5.13;;;1.10;;
62149;SDS011;48134;53.586;10.610;2024-03-23T14:31:39;5.85;;;1.42;;
62149;SDS011;48134;53.586;10.610;2024-03-23T14:34:07;5.97;;;1.17;;
62149;SDS011;48134;53.586;10.610;2024-03-23T14:36:34;6.28;;;1.50;;
62149;SDS011;48134;53.586;10.610;2024-03-23T14:39:04;3.88;;;1.38;;
62149;SDS011;48134;53.586;10.610;2024-03-23T14:41:32;5.60;;;1.40;;
62149;SDS011;48134;53.586;10.610;2024-03-23T14:44:00;5.25;;;1.30;;
62149;SDS011;48134;53.586;10.610;2024-03-23T14:46:27;5.45;;;1.30;;
62149;SDS011;48134;53.586;10.610;2024-03-23T14:48:55;4.90;;;1.10;;
62149;SDS011;48134;53.586;10.610;2024-03-23T14:51:22;5.05;;;1.10;;
62149;SDS011;48134;53.586;10.610;2024-03-23T14:53:49;3.42;;;1.20;;
62149;SDS011;48134;53.586;10.610;2024-03-23T14:56:16;4.43;;;1.15;;
62149;SDS011;48134;53.586;10.610;2024-03-23T14:58:45;5.50;;;1.10;;
62149;SDS011;48134;53.586;10.610;2024-03-23T15:01:12;4.05;;;1.23;;
62149;SDS011;48134;53.586;10.610;2024-03-23T15:03:40;5.18;;;1.40;;
62149;SDS011;48134;53.586;10.610;2024-03-23T15:06:12;3.90;;;1.23;;
62149;SDS011;48134;53.586;10.610;2024-03-23T15:08:40;5.10;;;1.25;;
62149;SDS011;48134;53.586;10.610;2024-03-23T15:11:06;6.45;;;1.20;;
62149;SDS011;48134;53.586;10.610;2024-03-23T15:13:34;5.20;;;1.20;;
62149;SDS011;48134;53.586;10.610;2024-03-23T15:16:03;6.65;;;1.30;;
62149;SDS011;48134;53.586;10.610;2024-03-23T15:18:31;3.22;;;1.10;;
62149;SDS011;48134;53.586;10.610;2024-03-23T15:20:59;3.85;;;0.93;;
62149;SDS011;48134;53.586;10.610;2024-03-23T15:23:29;5.50;;;1.30;;
62149;SDS011;48134;53.586;10.610;2024-03-23T15:25:56;6.60;;;1.35;;
62149;SDS011;48134;53.586;10.610;2024-03-23T15:28:24;5.00;;;1.20;;
62149;SDS011;48134;53.586;10.610;2024-03-23T15:30:53;9.43;;;1.70;;
62149;SDS011;48134;53.586;10.610;2024-03-23T15:33:22;6.90;;;1.70;;